createdAt,value
2023-03-12T00:01:59.745Z,101314.00
2023-03-12T00:04:27.043Z,101305.09
2023-03-12T00:06:54.321Z,101297.97
2023-03-12T00:09:20.921Z,101303.97
2023-03-12T00:11:47.409Z,101299.59
2023-03-12T00:14:13.897Z,101295.22
2023-03-12T00:16:40.772Z,101286.50
2023-03-12T00:19:07.277Z,101288.13
2023-03-12T00:21:33.864Z,101282.78
2023-03-12T00:24:00.366Z,101291.53
2023-03-12T00:26:26.951Z,101288.47
2023-03-12T00:28:53.845Z,101280.84
2023-03-12T00:31:22.057Z,101270.47
2023-03-12T00:33:51.469Z,101277.94
2023-03-12T00:36:19.718Z,101278.44
2023-03-12T00:38:46.334Z,101280.06
2023-03-12T00:41:12.960Z,101284.28
2023-03-12T00:43:39.445Z,101282.31
2023-03-12T00:46:05.976Z,101285.53
2023-03-12T00:48:32.924Z,101279.53
2023-03-12T00:50:59.467Z,101276.00
2023-03-12T00:53:26.331Z,101273.25
2023-03-12T00:55:52.926Z,101275.81
2023-03-12T00:58:19.457Z,101275.66
2023-03-12T01:00:46.160Z,101275.81
2023-03-12T01:03:13.472Z,101271.63
2023-03-12T01:05:41.148Z,101261.59
2023-03-12T01:08:09.271Z,101261.91
2023-03-12T01:10:37.287Z,101257.06
2023-03-12T01:13:03.987Z,101238.25
2023-03-12T01:15:30.524Z,101236.81
2023-03-12T01:17:56.990Z,101234.22
2023-03-12T01:20:23.750Z,101230.66
2023-03-12T01:22:51.344Z,101232.44
2023-03-12T01:25:18.458Z,101245.38
2023-03-12T01:27:45.321Z,101234.88
2023-03-12T01:30:12.529Z,101240.69
2023-03-12T01:32:39.203Z,101245.88
2023-03-12T01:35:06.240Z,101249.13
2023-03-12T01:37:33.285Z,101247.19
2023-03-12T01:40:00.438Z,101248.81
2023-03-12T01:42:27.077Z,101239.88
2023-03-12T01:45:04.413Z,101238.75
2023-03-12T01:47:34.038Z,101235.19
2023-03-12T01:50:01.375Z,101231.47
2023-03-12T01:52:32.440Z,101236.31
2023-03-12T01:55:09.536Z,101230.81
2023-03-12T01:57:55.984Z,101219.47
2023-03-12T02:00:25.610Z,101225.00
2023-03-12T02:02:56.249Z,101216.25
2023-03-12T02:05:30.542Z,101207.16
2023-03-12T02:07:57.671Z,101206.84
2023-03-12T02:10:25.916Z,101204.91
2023-03-12T02:12:53.207Z,101202.97
2023-03-12T02:15:19.999Z,101201.00
2023-03-12T02:17:46.692Z,101194.66
2023-03-12T02:20:35.859Z,101191.91
2023-03-12T02:23:12.891Z,101182.03
2023-03-12T02:25:49.826Z,101181.69
2023-03-12T02:28:19.622Z,101176.19
2023-03-12T02:30:48.767Z,101179.41
2023-03-12T02:33:16.135Z,101172.94
2023-03-12T02:35:43.671Z,101170.81
2023-03-12T02:38:32.974Z,101161.91
2023-03-12T02:41:05.529Z,101156.53
2023-03-12T02:43:32.460Z,101158.16
2023-03-12T02:45:58.989Z,101156.22
2023-03-12T02:48:25.574Z,101156.06
2023-03-12T02:50:52.093Z,101157.50
2023-03-12T02:53:18.571Z,101145.16
2023-03-12T02:55:45.064Z,101142.38
2023-03-12T02:58:11.725Z,101136.06
2023-03-12T03:00:38.162Z,101137.34
2023-03-12T03:03:04.652Z,101134.56
2023-03-12T03:05:31.490Z,101123.06
2023-03-12T03:07:57.989Z,101119.16
2023-03-12T03:10:24.585Z,101112.00
2023-03-12T03:12:51.590Z,101114.44
2023-03-12T03:15:18.222Z,101114.25
2023-03-12T03:17:44.753Z,101113.28
2023-03-12T03:20:12.004Z,101114.09
2023-03-12T03:22:39.220Z,101115.72
2023-03-12T03:25:07.355Z,101107.75
2023-03-12T03:27:34.042Z,101115.03
2023-03-12T03:30:00.529Z,101096.06
2023-03-12T03:32:27.430Z,101091.03
2023-03-12T03:34:53.995Z,101089.09
2023-03-12T03:37:20.479Z,101081.13
2023-03-12T03:39:47.049Z,101082.75
2023-03-12T03:42:13.568Z,101079.78
2023-03-12T03:44:40.212Z,101070.03
2023-03-12T03:47:06.934Z,101073.28
2023-03-12T03:49:33.572Z,101058.97
2023-03-12T03:52:00.188Z,101051.66
2023-03-12T03:54:26.750Z,101055.69
2023-03-12T03:56:53.192Z,101051.59
2023-03-12T03:59:19.703Z,101043.47
2023-03-12T04:01:46.258Z,101042.66
2023-03-12T04:04:12.797Z,101054.66
2023-03-12T04:06:39.772Z,101066.84
2023-03-12T04:09:06.451Z,101059.22
2023-03-12T04:11:32.944Z,101060.84
2023-03-12T04:13:59.423Z,101059.69
2023-03-12T04:16:27.251Z,101058.53
2023-03-12T04:18:53.801Z,101056.22
2023-03-12T04:21:20.404Z,101054.53
2023-03-12T04:23:46.838Z,101053.03
2023-03-12T04:26:13.432Z,101040.16
2023-03-12T04:28:39.916Z,101040.59
2023-03-12T04:31:07.958Z,101035.88
2023-03-12T04:33:37.983Z,101025.47
2023-03-12T04:36:05.667Z,101023.69
2023-03-12T04:38:32.425Z,101033.56
2023-03-12T04:41:05.465Z,101023.97
2023-03-12T04:43:32.268Z,101016.00
2023-03-12T04:45:59.159Z,101013.00
2023-03-12T04:48:26.492Z,101007.47
2023-03-12T04:50:53.444Z,100998.06
2023-03-12T04:53:20.785Z,100999.66
2023-03-12T04:55:47.267Z,100988.81
2023-03-12T04:58:14.865Z,100985.63
2023-03-12T05:00:41.912Z,100975.41
2023-03-12T05:03:09.054Z,100961.44
2023-03-12T05:05:36.029Z,100958.84
2023-03-12T05:08:03.756Z,100946.84
2023-03-12T05:10:30.420Z,100963.06
2023-03-12T05:12:57.041Z,100949.03
2023-03-12T05:15:23.640Z,100947.47
2023-03-12T05:17:50.437Z,100948.69
2023-03-12T05:20:17.804Z,100937.13
2023-03-12T05:22:44.558Z,100928.34
2023-03-12T05:25:11.556Z,100938.56
2023-03-12T05:27:38.299Z,100938.56
2023-03-12T05:30:06.774Z,100937.75
2023-03-12T05:32:33.470Z,100941.78
2023-03-12T05:35:00.139Z,100936.59
2023-03-12T05:37:26.684Z,100931.84
2023-03-12T05:39:54.520Z,100930.88
2023-03-12T05:42:21.049Z,100936.69
2023-03-12T05:44:47.546Z,100928.72
2023-03-12T05:47:14.063Z,100926.28
2023-03-12T05:49:40.809Z,100924.31
2023-03-12T05:52:07.348Z,100916.16
2023-03-12T05:54:33.878Z,100918.41
2023-03-12T05:57:00.610Z,100916.25
2023-03-12T05:59:27.390Z,100911.31
2023-03-12T06:01:53.993Z,100909.31
2023-03-12T06:04:20.533Z,100916.13
2023-03-12T06:06:47.185Z,100914.97
2023-03-12T06:09:13.803Z,100921.59
2023-03-12T06:11:40.307Z,100914.59
2023-03-12T06:14:06.839Z,100919.63
2023-03-12T06:16:33.590Z,100923.03
2023-03-12T06:19:02.599Z,100921.22
2023-03-12T06:21:32.186Z,100927.06
2023-03-12T06:23:59.639Z,100921.84
2023-03-12T06:26:27.411Z,100925.25
2023-03-12T06:28:54.304Z,100925.88
2023-03-12T06:31:21.820Z,100924.09
2023-03-12T06:33:48.460Z,100913.88
2023-03-12T06:36:15.139Z,100909.28
2023-03-12T06:38:41.782Z,100910.91
2023-03-12T06:41:11.225Z,100906.50
2023-03-12T06:43:39.255Z,100894.13
2023-03-12T06:46:08.602Z,100909.19
2023-03-12T06:48:36.882Z,100897.63
2023-03-12T06:51:10.755Z,100902.19
2023-03-12T06:53:40.395Z,100892.78
2023-03-12T06:56:08.834Z,100889.00
2023-03-12T06:58:35.362Z,100874.03
2023-03-12T07:01:01.884Z,100876.44
2023-03-12T07:03:28.397Z,100874.47
2023-03-12T07:05:56.708Z,100872.47
2023-03-12T07:08:23.624Z,100859.25
2023-03-12T07:10:50.227Z,100864.28
2023-03-12T07:13:16.902Z,100848.50
2023-03-12T07:15:45.113Z,100844.91
2023-03-12T07:18:12.273Z,100832.31
2023-03-12T07:20:41.254Z,100835.19
2023-03-12T07:23:08.649Z,100842.63
2023-03-12T07:25:37.603Z,100841.63
2023-03-12T07:28:04.452Z,100845.84
2023-03-12T07:30:34.396Z,100842.25
2023-03-12T07:33:05.871Z,100851.66
2023-03-12T07:35:32.964Z,100857.47
2023-03-12T07:38:01.051Z,100854.69
2023-03-12T07:40:28.531Z,100855.13
2023-03-12T07:42:55.250Z,100877.56
2023-03-12T07:45:21.812Z,100879.97
2023-03-12T07:47:48.443Z,100869.19
2023-03-12T07:50:16.271Z,100889.03
2023-03-12T07:52:43.129Z,100873.19
2023-03-12T07:55:11.010Z,100880.81
2023-03-12T07:57:38.347Z,100882.22
2023-03-12T08:00:07.706Z,100885.44
2023-03-12T08:02:34.548Z,100887.69
2023-03-12T08:05:01.218Z,100884.72
2023-03-12T08:07:32.333Z,100879.13
2023-03-12T08:10:00.009Z,100877.75
2023-03-12T08:12:27.149Z,100868.78
2023-03-12T08:14:53.892Z,100864.81
2023-03-12T08:17:20.643Z,100867.44
2023-03-12T08:19:47.252Z,100859.03
2023-03-12T08:22:13.745Z,100865.47
2023-03-12T08:24:40.311Z,100860.28
2023-03-12T08:27:06.833Z,100872.13
2023-03-12T08:29:33.565Z,100870.75
2023-03-12T08:32:04.943Z,100870.19
2023-03-12T08:34:33.858Z,100861.41
2023-03-12T08:37:00.766Z,100861.25
2023-03-12T08:39:27.244Z,100864.88
2023-03-12T08:41:55.543Z,100857.28
2023-03-12T08:44:23.342Z,100862.72
2023-03-12T08:46:50.233Z,100871.78
2023-03-12T08:49:16.711Z,100872.81
2023-03-12T08:51:43.236Z,100863.41
2023-03-12T08:54:09.811Z,100872.03
2023-03-12T08:56:42.379Z,100867.84
2023-03-12T08:59:12.561Z,100865.88
2023-03-12T09:01:43.041Z,100880.75
2023-03-12T09:04:10.405Z,100879.56
2023-03-12T09:06:38.627Z,100876.78
2023-03-12T09:09:05.414Z,100876.59
2023-03-12T09:11:33.840Z,100880.63
2023-03-12T09:16:47.859Z,100878.88
2023-03-12T09:19:14.378Z,100858.81
2023-03-12T09:21:40.995Z,100851.34
2023-03-12T09:24:08.261Z,100848.53
2023-03-12T09:26:34.888Z,100859.38
2023-03-12T09:29:01.562Z,100858.19
2023-03-12T09:31:28.782Z,100846.94
2023-03-12T09:33:55.304Z,100835.63
2023-03-12T09:36:21.990Z,100844.03
2023-03-12T09:38:48.508Z,100843.19
2023-03-12T09:41:19.657Z,100853.75
2023-03-12T09:43:52.934Z,100849.06
2023-03-12T09:46:29.216Z,100854.91
2023-03-12T09:49:01.670Z,100853.06
2023-03-12T09:51:51.607Z,100858.50
2023-03-12T09:54:23.931Z,100869.34
2023-03-12T09:56:55.017Z,100868.53
2023-03-12T09:59:22.382Z,100861.03
2023-03-12T10:02:02.069Z,100860.34
2023-03-12T10:04:58.135Z,100869.97
2023-03-12T10:07:34.792Z,100867.50
2023-03-12T10:10:55.824Z,100862.94
2023-03-12T10:13:33.549Z,100869.31
2023-03-12T10:16:08.591Z,100872.16
2023-03-12T10:18:55.877Z,100870.13
2023-03-12T10:21:32.010Z,100866.91
2023-03-12T10:24:29.182Z,100868.66
2023-03-12T10:26:58.309Z,100862.56
2023-03-12T10:29:35.061Z,100862.28
2023-03-12T10:32:07.455Z,100864.91
2023-03-12T10:34:45.839Z,100862.66
2023-03-12T10:37:22.612Z,100859.50
2023-03-12T10:39:50.060Z,100861.06
2023-03-12T10:42:29.222Z,100870.28
2023-03-12T10:44:59.944Z,100866.28
2023-03-12T10:47:38.240Z,100855.53
2023-03-12T10:50:18.106Z,100860.13
2023-03-12T10:52:46.362Z,100861.28
2023-03-12T10:55:12.799Z,100851.63
2023-03-12T10:57:42.873Z,100853.28
2023-03-12T11:00:13.648Z,100867.81
2023-03-12T11:02:43.538Z,100855.91
2023-03-12T11:05:25.900Z,100854.25
2023-03-12T11:07:52.940Z,100864.63
2023-03-12T11:10:25.219Z,100861.78
2023-03-12T11:12:58.577Z,100858.34
2023-03-12T11:15:40.821Z,100856.88
2023-03-12T11:18:25.104Z,100859.06
2023-03-12T11:21:12.695Z,100874.72
2023-03-12T11:24:15.259Z,100879.31
2023-03-12T11:27:03.298Z,100877.25
2023-03-12T11:29:33.358Z,100884.69
2023-03-12T11:32:17.156Z,100891.09
2023-03-12T11:34:49.559Z,100881.28
2023-03-12T11:37:53.589Z,100880.94
2023-03-12T11:40:54.230Z,100871.00
2023-03-12T11:43:42.819Z,100865.63
2023-03-12T11:46:44.771Z,100867.91
2023-03-12T11:49:26.369Z,100873.06
2023-03-12T11:52:02.036Z,100868.81
2023-03-12T11:54:47.897Z,100868.81
2023-03-12T11:57:57.105Z,100863.69
2023-03-12T12:00:39.091Z,100867.34
2023-03-12T12:03:42.871Z,100848.09
2023-03-12T12:06:12.287Z,100845.91
2023-03-12T12:08:48.081Z,100847.06
2023-03-12T12:11:32.497Z,100847.41
2023-03-12T12:14:44.064Z,100837.72
2023-03-12T12:17:29.764Z,100835.28
2023-03-12T12:20:22.257Z,100843.44
2023-03-12T12:22:58.797Z,100837.59
2023-03-12T12:25:55.806Z,100837.81
2023-03-12T12:28:59.912Z,100839.03
2023-03-12T12:31:56.969Z,100836.41
2023-03-12T12:34:36.325Z,100826.50
2023-03-12T12:37:18.871Z,100820.75
2023-03-12T12:40:18.064Z,100812.84
2023-03-12T12:43:04.455Z,100815.38
2023-03-12T12:45:31.228Z,100836.16
2023-03-12T12:48:03.850Z,100832.91
2023-03-12T12:50:36.834Z,100827.06
2023-03-12T12:53:23.160Z,100822.28
2023-03-12T12:56:01.126Z,100816.75
2023-03-12T12:58:59.021Z,100808.81
2023-03-12T13:01:27.852Z,100799.47
2023-03-12T13:04:01.786Z,100802.41
2023-03-12T13:06:30.211Z,100802.59
2023-03-12T13:08:56.716Z,100797.63
2023-03-12T13:11:27.350Z,100792.38
2023-03-12T13:14:03.622Z,100789.56
2023-03-12T13:16:46.514Z,100793.59
2023-03-12T13:19:16.079Z,100785.84
2023-03-12T13:22:10.551Z,100809.22
2023-03-12T13:24:44.995Z,100795.91
2023-03-12T13:27:36.519Z,100794.31
2023-03-12T13:30:27.914Z,100793.81
2023-03-12T13:32:57.554Z,100790.38
2023-03-12T13:35:24.321Z,100787.59
2023-03-12T13:37:53.492Z,100796.75
2023-03-12T13:40:29.233Z,100797.63
2023-03-12T13:43:02.773Z,100792.69
2023-03-12T13:45:31.902Z,100786.63
2023-03-12T13:48:02.094Z,100809.41
2023-03-12T13:50:30.330Z,100818.31
2023-03-12T13:53:25.918Z,100817.66
2023-03-12T13:56:10.734Z,100813.59
2023-03-12T13:58:57.352Z,100797.16
2023-03-12T14:01:29.437Z,100801.00
2023-03-12T14:04:00.431Z,100806.00
2023-03-12T14:06:30.313Z,100802.34
2023-03-12T14:09:39.268Z,100797.22
2023-03-12T14:12:19.345Z,100806.19
2023-03-12T14:14:51.815Z,100813.09
2023-03-12T14:17:24.456Z,100814.69
2023-03-12T14:20:23.220Z,100813.50
2023-03-12T14:22:59.001Z,100816.66
2023-03-12T14:25:37.788Z,100827.94
2023-03-12T14:28:12.544Z,100836.13
2023-03-12T14:30:57.673Z,100840.78
2023-03-12T14:33:27.268Z,100838.88
2023-03-12T14:36:01.668Z,100846.91
2023-03-12T14:38:34.540Z,100854.00
2023-03-12T14:41:13.621Z,100848.81
2023-03-12T14:43:42.534Z,100840.81
2023-03-12T14:46:21.553Z,100834.44
2023-03-12T14:48:50.637Z,100839.44
2023-03-12T14:51:24.406Z,100837.34
2023-03-12T14:53:51.838Z,100842.47
2023-03-12T14:56:35.153Z,100852.78
2023-03-12T14:59:21.481Z,100843.31
2023-03-12T15:01:48.357Z,100849.34
2023-03-12T15:04:18.342Z,100842.13
2023-03-12T15:06:51.260Z,100841.88
2023-03-12T15:09:28.208Z,100837.13
2023-03-12T15:11:58.421Z,100846.09
2023-03-12T15:14:28.222Z,100845.25
2023-03-12T15:16:56.022Z,100847.88
2023-03-12T15:19:31.394Z,100832.34
2023-03-12T15:21:58.278Z,100840.81
2023-03-12T15:24:25.303Z,100840.03
2023-03-12T15:26:51.873Z,100831.19
2023-03-12T15:29:29.285Z,100840.44
2023-03-12T15:31:58.864Z,100827.97
2023-03-12T15:34:39.254Z,100823.97
2023-03-12T15:37:40.947Z,100823.16
2023-03-12T15:40:22.043Z,100832.31
2023-03-12T15:42:49.775Z,100822.28
2023-03-12T15:45:32.075Z,100818.13
2023-03-12T15:47:58.709Z,100821.75
2023-03-12T15:50:36.753Z,100824.28
2023-03-12T15:53:06.679Z,100808.25
2023-03-12T15:55:35.658Z,100808.13
2023-03-12T15:58:02.991Z,100805.09
2023-03-12T16:00:44.637Z,100814.53
2023-03-12T16:03:17.308Z,100818.00
2023-03-12T16:05:44.612Z,100820.31
2023-03-12T16:08:11.520Z,100823.22
2023-03-12T16:10:38.978Z,100812.13
2023-03-12T16:13:05.793Z,100809.97
2023-03-12T16:15:36.122Z,100805.97
2023-03-12T16:18:03.009Z,100798.28
2023-03-12T16:20:30.198Z,100806.44
2023-03-12T16:22:56.887Z,100795.59
2023-03-12T16:25:23.843Z,100800.78
2023-03-12T16:27:54.799Z,100797.56
2023-03-12T16:30:31.322Z,100798.53
2023-03-12T16:33:00.268Z,100800.84
2023-03-12T16:35:28.311Z,100809.22
2023-03-12T16:37:55.757Z,100798.94
2023-03-12T16:40:32.953Z,100802.06
2023-03-12T16:43:03.367Z,100787.75
2023-03-12T16:45:33.397Z,100798.78
2023-03-12T16:48:03.510Z,100790.56
2023-03-12T16:50:30.716Z,100795.28
2023-03-12T16:52:58.006Z,100787.03
2023-03-12T16:55:44.207Z,100789.59
2023-03-12T16:58:13.271Z,100792.94
2023-03-12T17:00:40.556Z,100804.53
2023-03-12T17:03:07.088Z,100800.28
2023-03-12T17:05:33.628Z,100796.56
2023-03-12T17:08:00.165Z,100802.88
2023-03-12T17:10:26.789Z,100808.84
2023-03-12T17:12:53.833Z,100812.75
2023-03-12T17:15:33.361Z,100819.06
2023-03-12T17:18:03.657Z,100812.19
2023-03-12T17:20:36.071Z,100818.75
2023-03-12T17:23:03.928Z,100828.94
2023-03-12T17:25:33.001Z,100810.19
2023-03-12T17:28:00.110Z,100813.28
2023-03-12T17:30:29.170Z,100804.50
2023-03-12T17:33:04.729Z,100798.38
2023-03-12T17:35:31.896Z,100797.47
2023-03-12T17:37:58.827Z,100813.25
2023-03-12T17:40:25.493Z,100818.19
2023-03-12T17:42:52.293Z,100821.78
2023-03-12T17:45:18.794Z,100826.94
2023-03-12T17:47:45.458Z,100829.22
2023-03-12T17:50:12.476Z,100834.72
2023-03-12T17:52:38.999Z,100838.41
2023-03-12T17:55:06.533Z,100830.72
2023-03-12T17:57:33.415Z,100838.63
2023-03-12T17:59:59.905Z,100832.78
2023-03-12T18:02:26.472Z,100839.09
2023-03-12T18:04:53.062Z,100820.19
2023-03-12T18:07:19.550Z,100833.13
2023-03-12T18:09:46.088Z,100831.88
2023-03-12T18:12:12.758Z,100823.97
2023-03-12T18:14:39.443Z,100813.44
2023-03-12T18:17:06.258Z,100833.13
2023-03-12T18:19:35.182Z,100825.94
2023-03-12T18:22:01.987Z,100819.06
2023-03-12T18:24:28.601Z,100830.97
2023-03-12T18:26:55.166Z,100827.06
2023-03-12T18:29:21.639Z,100814.72
2023-03-12T18:31:48.116Z,100831.88
2023-03-12T18:34:14.591Z,100825.56
2023-03-12T18:36:41.092Z,100825.34
2023-03-12T18:39:07.760Z,100831.41
2023-03-12T18:41:34.204Z,100820.06
2023-03-12T18:44:00.713Z,100820.88
2023-03-12T18:46:28.095Z,100814.34
2023-03-12T18:48:54.808Z,100817.22
2023-03-12T18:51:21.354Z,100824.31
2023-03-12T18:53:47.794Z,100812.50
2023-03-12T18:56:14.879Z,100821.53
2023-03-12T18:58:41.468Z,100829.66
2023-03-12T19:01:08.036Z,100806.22
2023-03-12T19:03:36.634Z,100806.78
2023-03-12T19:06:08.554Z,100819.94
2023-03-12T19:08:37.289Z,100819.38
2023-03-12T19:11:09.610Z,100820.97
2023-03-12T19:13:36.418Z,100810.66
2023-03-12T19:16:06.051Z,100813.53
2023-03-12T19:18:32.516Z,100803.25
2023-03-12T19:20:59.093Z,100807.72
2023-03-12T19:23:25.633Z,100806.34
2023-03-12T19:25:52.221Z,100805.53
2023-03-12T19:28:18.869Z,100795.81
2023-03-12T19:30:45.384Z,100797.66
2023-03-12T19:33:12.111Z,100796.28
2023-03-12T19:35:39.850Z,100784.97
2023-03-12T19:38:06.380Z,100790.56
2023-03-12T19:40:34.150Z,100794.22
2023-03-12T19:43:02.205Z,100790.78
2023-03-12T19:45:29.096Z,100789.66
2023-03-12T19:47:55.765Z,100784.97
2023-03-12T19:50:23.077Z,100781.28
2023-03-12T19:52:49.763Z,100782.09
2023-03-12T19:55:16.454Z,100788.72
2023-03-12T19:57:43.097Z,100779.00
2023-03-12T20:00:12.192Z,100776.59
2023-03-12T20:02:39.418Z,100781.84
2023-03-12T20:05:07.336Z,100775.22
2023-03-12T20:07:34.016Z,100765.16
2023-03-12T20:10:00.606Z,100764.38
2023-03-12T20:12:27.437Z,100761.97
2023-03-12T20:14:53.937Z,100753.28
2023-03-12T20:17:20.416Z,100750.66
2023-03-12T20:19:46.888Z,100742.75
2023-03-12T20:22:13.507Z,100736.44
2023-03-12T20:24:40.245Z,100733.25
2023-03-12T20:27:06.780Z,100731.91
2023-03-12T20:29:33.389Z,100730.56
2023-03-12T20:31:59.954Z,100720.25
2023-03-12T20:34:26.519Z,100717.88
2023-03-12T20:36:53.052Z,100719.69
2023-03-12T20:39:19.817Z,100711.56
2023-03-12T20:41:46.312Z,100709.97
2023-03-12T20:44:12.944Z,100706.78
2023-03-12T20:46:39.442Z,100711.25
2023-03-12T20:49:05.980Z,100697.84
2023-03-12T20:51:32.477Z,100699.91
2023-03-12T20:53:59.029Z,100701.19
2023-03-12T20:56:25.583Z,100693.84
2023-03-12T20:58:52.339Z,100699.91
2023-03-12T21:01:18.882Z,100697.84
2023-03-12T21:03:45.758Z,100684.13
2023-03-12T21:06:12.319Z,100685.72
2023-03-12T21:08:38.854Z,100684.13
2023-03-12T21:11:06.767Z,100682.88
2023-03-12T21:13:33.286Z,100684.69
2023-03-12T21:15:59.828Z,100676.81
2023-03-12T21:18:26.402Z,100665.94
2023-03-12T21:20:53.135Z,100663.56
2023-03-12T21:23:19.905Z,100661.47
2023-03-12T21:25:46.496Z,100652.00
2023-03-12T21:28:13.060Z,100649.38
2023-03-12T21:30:39.618Z,100635.41
2023-03-12T21:33:07.275Z,100637.25
2023-03-12T21:35:33.764Z,100637.72
2023-03-12T21:38:00.369Z,100632.44
2023-03-12T21:40:27.007Z,100629.81
2023-03-12T21:42:53.538Z,100617.69
2023-03-12T21:45:19.966Z,100609.00
2023-03-12T21:47:46.395Z,100608.22
2023-03-12T21:50:13.013Z,100598.97
2023-03-12T21:52:42.913Z,100593.94
2023-03-12T21:55:10.123Z,100587.06
2023-03-12T21:57:36.632Z,100579.97
2023-03-12T22:00:04.333Z,100573.13
2023-03-12T22:02:31.706Z,100570.16
2023-03-12T22:05:01.362Z,100568.00
2023-03-12T22:07:30.983Z,100559.81
2023-03-12T22:09:57.668Z,100555.28
2023-03-12T22:12:24.334Z,100537.56
2023-03-12T22:14:51.056Z,100537.00
2023-03-12T22:17:17.783Z,100532.47
2023-03-12T22:19:44.477Z,100530.88
2023-03-12T22:22:11.207Z,100528.25
2023-03-12T22:24:38.025Z,100529.28
2023-03-12T22:27:07.355Z,100517.72
2023-03-12T22:29:34.510Z,100516.44
2023-03-12T22:32:01.170Z,100513.81
2023-03-12T22:34:29.421Z,100505.13
2023-03-12T22:36:55.987Z,100506.97
2023-03-12T22:39:22.462Z,100504.34
2023-03-12T22:41:52.968Z,100495.88
2023-03-12T22:44:19.638Z,100495.88
2023-03-12T22:46:46.350Z,100493.03
2023-03-12T22:49:12.956Z,100493.25
2023-03-12T22:51:39.458Z,100493.03
2023-03-12T22:54:06.022Z,100493.25
2023-03-12T22:56:32.535Z,100486.72
2023-03-12T22:58:59.505Z,100487.53
2023-03-12T23:01:26.646Z,100479.63
2023-03-12T23:03:53.176Z,100476.22
2023-03-12T23:06:22.842Z,100471.50
2023-03-12T23:08:49.628Z,100469.13
2023-03-12T23:11:17.347Z,100460.44
2023-03-12T23:13:45.257Z,100454.13
2023-03-12T23:16:17.526Z,100450.72
2023-03-12T23:18:44.881Z,100456.22
2023-03-12T23:21:17.809Z,100445.13
2023-03-12T23:23:45.087Z,100428.56
2023-03-12T23:26:15.533Z,100418.84
2023-03-12T23:28:42.088Z,100419.88
2023-03-12T23:31:10.570Z,100406.16
2023-03-12T23:33:37.841Z,100404.03
2023-03-12T23:36:10.948Z,100396.38
2023-03-12T23:38:38.265Z,100382.69
2023-03-12T23:41:07.778Z,100374.00
2023-03-12T23:43:34.574Z,100361.88
2023-03-12T23:46:03.190Z,100353.91
2023-03-12T23:48:31.625Z,100347.63
2023-03-12T23:51:09.296Z,100333.69
2023-03-12T23:53:37.181Z,100331.25
2023-03-12T23:56:05.963Z,100329.47
2023-03-12T23:58:33.223Z,100321.34
